createdAt,value
2023-03-06T00:01:10.541Z,-2.80
2023-03-06T00:03:38.860Z,-2.80
2023-03-06T00:06:07.473Z,-2.80
2023-03-06T00:08:37.011Z,-2.80
2023-03-06T00:11:05.185Z,-2.60
2023-03-06T00:13:35.141Z,-2.90
2023-03-06T00:16:03.265Z,-2.70
2023-03-06T00:18:31.503Z,-2.90
2023-03-06T00:20:59.524Z,-2.90
2023-03-06T00:23:28.715Z,-2.90
2023-03-06T00:25:58.209Z,-2.90
2023-03-06T00:28:26.310Z,-2.80
2023-03-06T00:30:54.437Z,-2.80
2023-03-06T00:33:22.460Z,-2.80
2023-03-06T00:35:50.571Z,-2.80
2023-03-06T00:38:18.877Z,-2.80
2023-03-06T00:40:47.078Z,-2.80
2023-03-06T00:43:16.537Z,-2.80
2023-03-06T00:45:44.637Z,-2.80
2023-03-06T00:48:12.669Z,-2.80
2023-03-06T00:50:40.820Z,-2.80
2023-03-06T00:53:11.304Z,-2.80
2023-03-06T00:55:39.316Z,-2.90
2023-03-06T00:58:07.393Z,-2.90
2023-03-06T01:00:37.120Z,-2.90
2023-03-06T01:03:05.607Z,-2.90
2023-03-06T01:05:36.997Z,-2.90
2023-03-06T01:08:06.389Z,-2.90
2023-03-06T01:10:34.433Z,-2.90
2023-03-06T01:13:02.569Z,-3.00
2023-03-06T01:15:30.679Z,-3.00
2023-03-06T01:18:00.108Z,-3.00
2023-03-06T01:20:28.823Z,-3.00
2023-03-06T01:22:56.925Z,-2.90
2023-03-06T01:25:26.193Z,-3.00
2023-03-06T01:27:54.357Z,-3.10
2023-03-06T01:30:23.013Z,-3.00
2023-03-06T01:32:51.079Z,-3.10
2023-03-06T01:35:20.616Z,-3.10
2023-03-06T01:37:49.032Z,-3.10
2023-03-06T01:40:17.046Z,-3.10
2023-03-06T01:42:46.789Z,-3.10
2023-03-06T01:45:52.199Z,-3.20
2023-03-06T01:48:23.015Z,-3.20
2023-03-06T01:50:53.862Z,-3.20
2023-03-06T01:53:22.476Z,-3.20
2023-03-06T01:55:50.636Z,-3.20
2023-03-06T01:58:20.296Z,-3.20
2023-03-06T02:00:48.386Z,-3.20
2023-03-06T02:03:20.218Z,-3.20
2023-03-06T02:05:48.732Z,-3.30
2023-03-06T02:08:20.655Z,-3.30
2023-03-06T02:10:59.592Z,-3.20
2023-03-06T02:13:27.883Z,-3.30
2023-03-06T02:15:56.401Z,-3.00
2023-03-06T02:18:24.842Z,-3.20
2023-03-06T02:20:55.532Z,-3.20
2023-03-06T02:23:33.005Z,-3.20
2023-03-06T02:26:03.510Z,-3.20
2023-03-06T02:28:31.568Z,-3.30
2023-03-06T02:30:59.702Z,-3.30
2023-03-06T02:33:30.173Z,-3.30
2023-03-06T02:36:00.954Z,-3.30
2023-03-06T02:38:32.886Z,-3.40
2023-03-06T02:41:05.122Z,-3.40
2023-03-06T02:43:36.107Z,-3.40
2023-03-06T02:46:04.512Z,-3.40
2023-03-06T02:48:32.755Z,-3.30
2023-03-06T02:51:01.016Z,-3.30
2023-03-06T02:53:29.169Z,-3.40
2023-03-06T02:55:57.217Z,-3.40
2023-03-06T02:58:26.712Z,-3.40
2023-03-06T03:00:54.772Z,-3.40
2023-03-06T03:03:22.891Z,-3.40
2023-03-06T03:05:50.937Z,-3.40
2023-03-06T03:08:19.066Z,-3.40
2023-03-06T03:10:47.193Z,-3.40
2023-03-06T03:13:15.244Z,-3.40
2023-03-06T03:15:45.022Z,-3.40
2023-03-06T03:18:13.390Z,-3.40
2023-03-06T03:20:44.161Z,-3.40
2023-03-06T03:23:12.231Z,-3.40
2023-03-06T03:25:40.387Z,-3.40
2023-03-06T03:28:08.424Z,-3.50
2023-03-06T03:30:36.509Z,-3.50
2023-03-06T03:33:06.304Z,-3.50
2023-03-06T03:35:34.533Z,-3.50
2023-03-06T03:38:02.718Z,-3.60
2023-03-06T03:40:30.877Z,-3.60
2023-03-06T03:42:58.912Z,-3.50
2023-03-06T03:45:27.138Z,-3.50
2023-03-06T03:47:55.167Z,-3.60
2023-03-06T03:50:24.579Z,-3.60
2023-03-06T03:52:52.604Z,-3.60
2023-03-06T03:55:20.869Z,-3.60
2023-03-06T03:57:49.076Z,-3.60
2023-03-06T04:00:18.364Z,-3.60
2023-03-06T04:02:47.078Z,-3.70
2023-03-06T04:05:16.830Z,-3.60
2023-03-06T04:07:46.381Z,-3.70
2023-03-06T04:10:15.013Z,-3.70
2023-03-06T04:12:45.897Z,-3.70
2023-03-06T04:15:14.007Z,-3.60
2023-03-06T04:17:42.114Z,-3.60
2023-03-06T04:20:11.629Z,-3.60
2023-03-06T04:22:41.117Z,-3.60
2023-03-06T04:25:11.637Z,-3.60
2023-03-06T04:27:39.742Z,-3.60
2023-03-06T04:30:09.229Z,-3.60
2023-03-06T04:32:37.728Z,-3.60
2023-03-06T04:35:06.614Z,-3.60
2023-03-06T04:37:34.720Z,-3.60
2023-03-06T04:40:02.852Z,-3.50
2023-03-06T04:42:32.539Z,-3.50
2023-03-06T04:45:00.621Z,-3.50
2023-03-06T04:47:28.662Z,-3.50
2023-03-06T04:49:56.728Z,-3.40
2023-03-06T04:52:24.735Z,-3.40
2023-03-06T04:54:52.868Z,-3.40
2023-03-06T04:57:20.933Z,-3.40
2023-03-06T04:59:50.792Z,-3.50
2023-03-06T05:02:19.444Z,-3.40
2023-03-06T05:04:47.528Z,-3.50
2023-03-06T05:07:15.666Z,-3.40
2023-03-06T05:09:43.861Z,-3.40
2023-03-06T05:12:11.930Z,-3.40
2023-03-06T05:14:39.987Z,-3.40
2023-03-06T05:17:09.587Z,-3.40
2023-03-06T05:19:37.671Z,-3.40
2023-03-06T05:22:05.915Z,-3.30
2023-03-06T05:24:34.011Z,-3.30
2023-03-06T05:27:02.123Z,-3.30
2023-03-06T05:29:30.210Z,-3.20
2023-03-06T05:31:59.010Z,-3.30
2023-03-06T05:34:28.476Z,-3.20
2023-03-06T05:36:56.714Z,-3.30
2023-03-06T05:39:24.733Z,-3.30
2023-03-06T05:41:52.777Z,-3.30
2023-03-06T05:44:21.062Z,-3.30
2023-03-06T05:46:50.336Z,-3.30
2023-03-06T05:49:18.357Z,-3.20
2023-03-06T05:51:47.760Z,-3.20
2023-03-06T05:54:15.825Z,-3.20
2023-03-06T05:56:43.937Z,-3.10
2023-03-06T05:59:12.089Z,-3.10
2023-03-06T06:01:40.152Z,-3.10
2023-03-06T06:04:08.142Z,-3.00
2023-03-06T06:06:36.345Z,-3.00
2023-03-06T06:09:06.103Z,-3.00
2023-03-06T06:11:34.140Z,-2.90
2023-03-06T06:14:02.192Z,-2.90
2023-03-06T06:16:30.265Z,-2.80
2023-03-06T06:18:58.999Z,-2.80
2023-03-06T06:21:27.048Z,-2.70
2023-03-06T06:23:55.172Z,-2.70
2023-03-06T06:26:24.867Z,-2.60
2023-03-06T06:28:52.886Z,-2.60
2023-03-06T06:31:21.135Z,-2.50
2023-03-06T06:33:49.256Z,-2.50
2023-03-06T06:36:18.578Z,-2.40
2023-03-06T06:38:46.962Z,-2.30
2023-03-06T06:41:50.731Z,-2.40
2023-03-06T06:44:08.936Z,-2.30
2023-03-06T06:47:20.860Z,-2.20
2023-03-06T06:49:25.965Z,-2.10
2023-03-06T06:51:53.976Z,-2.00
2023-03-06T06:54:22.935Z,-2.00
2023-03-06T06:56:50.971Z,-1.90
2023-03-06T06:59:20.453Z,-1.80
2023-03-06T07:01:48.493Z,-1.80
2023-03-06T07:04:18.121Z,-1.70
2023-03-06T07:06:47.236Z,-1.70
2023-03-06T07:09:16.215Z,-1.60
2023-03-06T07:11:44.331Z,-1.70
2023-03-06T07:14:12.382Z,-1.60
2023-03-06T07:16:41.846Z,-1.50
2023-03-06T07:19:09.989Z,-1.50
2023-03-06T07:21:38.108Z,-1.40
2023-03-06T07:24:06.706Z,-1.40
2023-03-06T07:26:35.311Z,-1.30
2023-03-06T07:29:03.953Z,-1.20
2023-03-06T07:31:32.034Z,-1.20
2023-03-06T07:34:04.504Z,-1.10
2023-03-06T07:36:33.476Z,-1.00
2023-03-06T07:39:01.977Z,-0.90
2023-03-06T07:41:30.104Z,-0.90
2023-03-06T07:43:58.388Z,-0.70
2023-03-06T07:46:27.027Z,-0.70
2023-03-06T07:48:55.285Z,-0.80
2023-03-06T07:51:24.729Z,-0.60
2023-03-06T07:53:53.004Z,-0.70
2023-03-06T07:56:21.112Z,-0.70
2023-03-06T07:58:49.642Z,-0.60
2023-03-06T08:01:19.792Z,-0.50
2023-03-06T08:03:50.050Z,-0.50
2023-03-06T08:06:20.447Z,-0.40
2023-03-06T08:08:51.040Z,-0.30
2023-03-06T08:11:21.934Z,-0.20
2023-03-06T08:13:52.729Z,-0.20
2023-03-06T08:16:22.084Z,-0.10
2023-03-06T08:18:50.147Z,0.00
2023-03-06T08:21:21.447Z,0.10
2023-03-06T08:23:51.624Z,0.10
2023-03-06T08:26:21.944Z,0.10
2023-03-06T08:28:51.639Z,0.10
2023-03-06T08:31:26.932Z,0.20
2023-03-06T08:33:55.798Z,0.20
2023-03-06T08:36:23.974Z,0.20
2023-03-06T08:38:53.886Z,0.20
2023-03-06T08:41:23.375Z,0.30
2023-03-06T08:43:51.962Z,0.30
2023-03-06T08:46:21.785Z,0.30
2023-03-06T08:48:49.863Z,0.40
2023-03-06T08:51:19.278Z,0.40
2023-03-06T08:53:48.076Z,0.50
2023-03-06T08:56:20.005Z,0.50
2023-03-06T08:58:48.381Z,0.60
2023-03-06T09:01:18.325Z,0.60
2023-03-06T09:03:46.601Z,0.60
2023-03-06T09:06:15.932Z,0.60
2023-03-06T09:08:44.779Z,0.50
2023-03-06T09:11:14.208Z,0.50
2023-03-06T09:13:44.137Z,0.50
2023-03-06T09:16:13.505Z,0.50
2023-03-06T09:18:41.909Z,0.50
2023-03-06T09:21:11.136Z,0.60
2023-03-06T09:23:40.489Z,0.60
2023-03-06T09:26:09.029Z,0.60
2023-03-06T09:28:39.096Z,0.60
2023-03-06T09:31:11.766Z,0.60
2023-03-06T09:33:39.894Z,0.60
2023-03-06T09:36:16.712Z,0.60
2023-03-06T09:38:45.888Z,0.70
2023-03-06T09:41:26.624Z,0.70
2023-03-06T09:43:59.135Z,0.70
2023-03-06T09:46:40.493Z,0.70
2023-03-06T09:49:23.987Z,0.60
2023-03-06T09:52:00.953Z,0.50
2023-03-06T09:54:41.276Z,0.50
2023-03-06T09:57:19.815Z,0.50
2023-03-06T09:59:52.772Z,0.50
2023-03-06T10:02:32.177Z,0.60
2023-03-06T10:05:04.126Z,0.70
2023-03-06T10:07:44.623Z,0.80
2023-03-06T10:10:19.568Z,0.90
2023-03-06T10:12:54.841Z,0.90
2023-03-06T10:15:26.635Z,1.10
2023-03-06T10:17:58.055Z,1.00
2023-03-06T10:20:28.988Z,1.10
2023-03-06T10:23:11.057Z,1.10
2023-03-06T10:25:47.811Z,1.20
2023-03-06T10:28:19.162Z,1.20
2023-03-06T10:30:52.813Z,1.20
2023-03-06T10:33:41.044Z,1.20
2023-03-06T10:36:14.438Z,1.20
2023-03-06T10:38:43.302Z,1.30
2023-03-06T10:41:23.862Z,1.30
2023-03-06T10:44:28.499Z,1.30
2023-03-06T10:46:57.199Z,1.30
2023-03-06T10:49:33.408Z,1.50
2023-03-06T10:52:05.556Z,1.50
2023-03-06T10:54:36.178Z,1.30
2023-03-06T10:57:29.275Z,1.30
2023-03-06T10:59:58.658Z,1.30
2023-03-06T11:02:31.292Z,1.40
2023-03-06T11:05:02.281Z,1.40
2023-03-06T11:07:31.864Z,1.40
2023-03-06T11:10:18.196Z,1.50
2023-03-06T11:12:58.805Z,1.50
2023-03-06T11:15:28.134Z,1.60
2023-03-06T11:18:01.902Z,1.60
2023-03-06T11:20:50.130Z,1.60
2023-03-06T11:23:20.152Z,1.70
2023-03-06T11:25:51.561Z,1.80
2023-03-06T11:28:24.949Z,1.80
2023-03-06T11:30:56.268Z,1.90
2023-03-06T11:33:30.535Z,1.90
2023-03-06T11:36:06.713Z,2.00
2023-03-06T11:38:41.413Z,2.00
2023-03-06T11:41:20.222Z,2.00
2023-03-06T11:43:56.383Z,2.10
2023-03-06T11:46:29.491Z,2.00
2023-03-06T11:49:05.977Z,1.90
2023-03-06T11:51:41.590Z,1.90
2023-03-06T11:54:13.796Z,1.90
2023-03-06T11:56:49.401Z,1.80
2023-03-06T11:59:48.730Z,1.90
2023-03-06T12:02:29.611Z,2.00
2023-03-06T12:05:12.580Z,2.20
2023-03-06T12:07:49.422Z,2.20
2023-03-06T12:10:24.025Z,2.00
2023-03-06T12:13:27.491Z,1.90
2023-03-06T12:16:25.439Z,1.80
2023-03-06T12:19:03.474Z,1.90
2023-03-06T12:21:43.199Z,1.70
2023-03-06T12:24:30.571Z,1.60
2023-03-06T12:27:12.066Z,1.70
2023-03-06T12:29:53.938Z,1.60
2023-03-06T12:32:36.606Z,1.70
2023-03-06T12:35:16.213Z,1.60
2023-03-06T12:37:56.994Z,1.50
2023-03-06T12:40:40.787Z,1.50
2023-03-06T12:43:38.856Z,1.50
2023-03-06T12:46:13.121Z,1.50
2023-03-06T12:48:44.630Z,1.50
2023-03-06T12:51:17.769Z,1.40
2023-03-06T12:53:47.656Z,1.30
2023-03-06T12:56:19.278Z,1.20
2023-03-06T12:58:54.274Z,1.20
2023-03-06T13:01:55.582Z,1.00
2023-03-06T13:04:45.930Z,1.00
2023-03-06T13:07:34.827Z,0.90
2023-03-06T13:10:14.949Z,0.90
2023-03-06T13:12:54.271Z,0.90
2023-03-06T13:15:44.337Z,0.80
2023-03-06T13:18:58.557Z,0.80
2023-03-06T13:21:47.180Z,0.80
2023-03-06T13:24:18.501Z,0.70
2023-03-06T13:26:56.113Z,0.70
2023-03-06T13:30:14.195Z,0.70
2023-03-06T13:32:43.525Z,0.70
2023-03-06T13:35:47.555Z,0.70
2023-03-06T13:38:54.278Z,0.70
2023-03-06T13:41:58.676Z,0.70
2023-03-06T13:44:48.871Z,0.60
2023-03-06T13:47:32.379Z,0.60
2023-03-06T13:50:13.275Z,0.60
2023-03-06T13:52:54.205Z,0.60
2023-03-06T13:55:31.401Z,0.60
2023-03-06T13:58:14.956Z,0.60
2023-03-06T14:00:58.134Z,0.60
2023-03-06T14:03:56.650Z,0.60
2023-03-06T14:07:03.224Z,0.50
2023-03-06T14:09:35.444Z,0.60
2023-03-06T14:12:07.979Z,0.60
2023-03-06T14:14:43.048Z,0.60
2023-03-06T14:17:24.219Z,0.60
2023-03-06T14:19:52.787Z,0.60
2023-03-06T14:22:25.160Z,0.70
2023-03-06T14:24:57.544Z,0.60
2023-03-06T14:27:49.987Z,0.70
2023-03-06T14:30:20.990Z,0.70
2023-03-06T14:32:50.123Z,0.70
2023-03-06T14:35:27.948Z,0.70
2023-03-06T14:38:00.494Z,0.60
2023-03-06T14:40:34.687Z,0.80
2023-03-06T14:43:21.326Z,0.90
2023-03-06T14:45:55.715Z,0.80
2023-03-06T14:48:24.518Z,0.80
2023-03-06T14:50:54.636Z,0.80
2023-03-06T14:53:28.027Z,0.80
2023-03-06T14:56:00.211Z,0.80
2023-03-06T14:58:32.621Z,0.80
2023-03-06T15:01:04.749Z,0.80
2023-03-06T15:03:42.761Z,0.80
2023-03-06T15:06:16.598Z,0.80
2023-03-06T15:08:48.797Z,0.80
2023-03-06T15:11:16.852Z,0.70
2023-03-06T15:14:01.858Z,0.80
2023-03-06T15:16:31.349Z,0.90
2023-03-06T15:19:00.750Z,0.90
2023-03-06T15:21:32.705Z,0.90
2023-03-06T15:24:02.218Z,1.00
2023-03-06T15:26:33.338Z,1.10
2023-03-06T15:29:12.864Z,1.00
2023-03-06T15:31:42.675Z,1.00
2023-03-06T15:34:23.467Z,0.90
2023-03-06T15:36:55.337Z,0.90
2023-03-06T15:39:38.827Z,0.80
2023-03-06T15:42:21.230Z,0.80
2023-03-06T15:44:51.760Z,0.70
2023-03-06T15:47:20.280Z,0.70
2023-03-06T15:49:51.850Z,0.70
2023-03-06T15:52:20.165Z,0.60
2023-03-06T15:54:50.207Z,0.60
2023-03-06T15:57:23.078Z,0.60
2023-03-06T15:59:52.432Z,0.60
2023-03-06T16:02:22.673Z,0.60
2023-03-06T16:04:51.232Z,0.50
2023-03-06T16:07:19.452Z,0.50
2023-03-06T16:09:48.928Z,0.50
2023-03-06T16:12:18.384Z,0.40
2023-03-06T16:14:47.421Z,0.40
2023-03-06T16:17:16.835Z,0.40
2023-03-06T16:19:45.386Z,0.40
2023-03-06T16:22:13.825Z,0.40
2023-03-06T16:24:41.955Z,0.30
2023-03-06T16:27:18.528Z,0.30
2023-03-06T16:29:46.928Z,0.20
2023-03-06T16:32:15.430Z,0.20
2023-03-06T16:34:43.534Z,0.10
2023-03-06T16:37:13.921Z,0.00
2023-03-06T16:39:42.037Z,0.00
2023-03-06T16:42:10.083Z,0.00
2023-03-06T16:44:39.585Z,-0.10
2023-03-06T16:47:11.290Z,0.00
2023-03-06T16:49:39.450Z,0.00
2023-03-06T16:52:08.557Z,0.00
2023-03-06T16:54:36.587Z,0.00
2023-03-06T16:57:04.735Z,0.00
2023-03-06T16:59:33.111Z,0.00
2023-03-06T17:02:02.492Z,0.00
2023-03-06T17:04:30.761Z,0.00
2023-03-06T17:06:58.832Z,0.00
2023-03-06T17:09:26.854Z,0.00
2023-03-06T17:11:54.949Z,-0.10
2023-03-06T17:14:23.037Z,-0.10
2023-03-06T17:16:51.159Z,-0.10
2023-03-06T17:19:20.518Z,-0.20
2023-03-06T17:21:48.690Z,-0.30
2023-03-06T17:24:16.865Z,-0.30
2023-03-06T17:26:47.135Z,-0.40
2023-03-06T17:29:15.477Z,-0.50
2023-03-06T17:31:43.459Z,-0.50
2023-03-06T17:34:11.581Z,-0.50
2023-03-06T17:36:40.909Z,-0.60
2023-03-06T17:39:08.934Z,-0.60
2023-03-06T17:41:36.961Z,-0.70
2023-03-06T17:44:05.469Z,-0.60
2023-03-06T17:46:34.703Z,-0.80
2023-03-06T17:49:02.732Z,-0.80
2023-03-06T17:51:30.811Z,-0.80
2023-03-06T17:54:00.396Z,-0.80
2023-03-06T17:56:28.825Z,-0.80
2023-03-06T17:58:57.705Z,-0.90
2023-03-06T18:01:27.464Z,-0.90
2023-03-06T18:03:56.103Z,-0.90
2023-03-06T18:06:26.155Z,-0.90
2023-03-06T18:08:54.436Z,-0.90
2023-03-06T18:11:24.571Z,-0.90
2023-03-06T18:13:53.017Z,-0.90
2023-03-06T18:16:23.682Z,-1.00
2023-03-06T18:18:53.404Z,-1.00
2023-03-06T18:21:22.582Z,-0.70
2023-03-06T18:23:50.735Z,-1.00
2023-03-06T18:26:21.288Z,-1.10
2023-03-06T18:28:54.248Z,-1.10
2023-03-06T18:31:24.533Z,-1.10
2023-03-06T18:33:53.800Z,-1.10
2023-03-06T18:36:23.982Z,-1.10
2023-03-06T18:38:52.601Z,-1.10
2023-03-06T18:41:22.324Z,-1.20
2023-03-06T18:43:55.430Z,-1.20
2023-03-06T18:46:24.422Z,-1.20
2023-03-06T18:48:52.606Z,-1.20
2023-03-06T18:51:20.700Z,-1.30
2023-03-06T18:53:48.990Z,-1.30
2023-03-06T18:56:18.980Z,-1.30
2023-03-06T18:58:47.700Z,-1.30
2023-03-06T19:01:17.561Z,-1.10
2023-03-06T19:03:46.014Z,-1.40
2023-03-06T19:06:16.945Z,-1.40
2023-03-06T19:08:45.887Z,-1.40
2023-03-06T19:11:16.332Z,-1.40
2023-03-06T19:13:45.132Z,-1.40
2023-03-06T19:16:20.462Z,-1.40
2023-03-06T19:18:48.800Z,-1.40
2023-03-06T19:21:19.694Z,-1.40
2023-03-06T19:23:48.011Z,-1.50
2023-03-06T19:26:18.653Z,-1.50
2023-03-06T19:28:47.575Z,-1.50
2023-03-06T19:31:19.504Z,-1.50
2023-03-06T19:33:50.282Z,-1.60
2023-03-06T19:36:19.115Z,-1.60
2023-03-06T19:38:50.343Z,-1.60
2023-03-06T19:41:18.602Z,-1.60
2023-03-06T19:43:52.241Z,-1.60
2023-03-06T19:46:21.160Z,-1.60
2023-03-06T19:48:56.163Z,-1.60
2023-03-06T19:51:24.588Z,-1.60
2023-03-06T19:53:52.778Z,-1.60
2023-03-06T19:56:22.341Z,-1.60
2023-03-06T19:58:50.522Z,-1.60
2023-03-06T20:01:20.428Z,-1.60
2023-03-06T20:03:50.641Z,-1.60
2023-03-06T20:06:20.523Z,-1.50
2023-03-06T20:08:49.353Z,-1.50
2023-03-06T20:11:18.625Z,-1.50
2023-03-06T20:13:47.889Z,-1.50
2023-03-06T20:16:16.486Z,-1.50
2023-03-06T20:18:45.466Z,-1.50
2023-03-06T20:21:15.556Z,-1.50
2023-03-06T20:23:43.850Z,-1.50
2023-03-06T20:26:14.429Z,-1.50
2023-03-06T20:28:43.693Z,-1.50
2023-03-06T20:31:13.930Z,-1.60
2023-03-06T20:33:41.939Z,-1.60
2023-03-06T20:36:16.054Z,-1.60
2023-03-06T20:38:44.185Z,-1.60
2023-03-06T20:41:15.657Z,-1.60
2023-03-06T20:43:43.929Z,-1.70
2023-03-06T20:46:13.445Z,-1.70
2023-03-06T20:48:42.263Z,-1.70
2023-03-06T20:51:17.659Z,-1.70
2023-03-06T20:53:46.830Z,-1.70
2023-03-06T20:56:15.521Z,-1.70
2023-03-06T20:58:43.969Z,-1.70
2023-03-06T21:01:20.108Z,-1.80
2023-03-06T21:03:48.744Z,-1.80
2023-03-06T21:06:18.427Z,-1.80
2023-03-06T21:08:46.696Z,-1.80
2023-03-06T21:11:15.308Z,-1.80
2023-03-06T21:13:43.320Z,-1.90
2023-03-06T21:16:13.608Z,-1.90
2023-03-06T21:18:41.778Z,-1.90
2023-03-06T21:21:11.849Z,-1.90
2023-03-06T21:23:41.403Z,-1.90
2023-03-06T21:26:13.899Z,-1.90
2023-03-06T21:28:42.098Z,-1.90
2023-03-06T21:31:12.397Z,-1.90
2023-03-06T21:33:41.112Z,-1.90
2023-03-06T21:36:09.691Z,-1.90
2023-03-06T21:38:37.978Z,-2.00
2023-03-06T21:41:11.788Z,-2.00
2023-03-06T21:43:40.153Z,-2.00
2023-03-06T21:46:08.733Z,-2.00
2023-03-06T21:48:36.877Z,-1.80
2023-03-06T21:51:07.240Z,-2.00
2023-03-06T21:53:41.278Z,-2.00
2023-03-06T21:56:11.636Z,-2.00
2023-03-06T21:58:39.779Z,-1.90
2023-03-06T22:01:11.490Z,-2.00
2023-03-06T22:03:39.875Z,-2.00
2023-03-06T22:06:09.551Z,-2.00
2023-03-06T22:08:37.532Z,-2.00
2023-03-06T22:11:12.249Z,-2.10
2023-03-06T22:13:40.389Z,-2.10
2023-03-06T22:16:09.006Z,-2.10
2023-03-06T22:18:37.647Z,-2.20
2023-03-06T22:21:09.551Z,-2.20
2023-03-06T22:23:37.810Z,-2.20
2023-03-06T22:26:07.633Z,-2.20
2023-03-06T22:28:37.116Z,-2.30
2023-03-06T22:31:07.445Z,-2.30
2023-03-06T22:33:35.505Z,-2.30
2023-03-06T22:36:06.302Z,-2.30
2023-03-06T22:38:35.116Z,-2.30
2023-03-06T22:41:03.327Z,-2.30
2023-03-06T22:43:34.005Z,-2.30
2023-03-06T22:46:04.704Z,-2.30
2023-03-06T22:48:34.138Z,-2.30
2023-03-06T22:51:05.874Z,-2.30
2023-03-06T22:53:34.725Z,-2.40
2023-03-06T22:56:04.664Z,-2.40
2023-03-06T23:01:08.630Z,-2.50
2023-03-06T23:03:37.634Z,-2.10
2023-03-06T23:06:09.932Z,-1.80
2023-03-06T23:08:38.668Z,-2.50
2023-03-06T23:11:10.285Z,-2.50
2023-03-06T23:13:38.806Z,-2.10
2023-03-06T23:16:10.009Z,-2.50
2023-03-06T23:18:39.058Z,-2.60
2023-03-06T23:21:08.855Z,-2.60
2023-03-06T23:23:37.028Z,-2.70
2023-03-06T23:26:05.316Z,-2.70
2023-03-06T23:28:33.517Z,-1.90
2023-03-06T23:31:01.858Z,-2.70
2023-03-06T23:33:31.323Z,-2.70
2023-03-06T23:36:03.303Z,-2.70
2023-03-06T23:38:31.822Z,-2.70
2023-03-06T23:41:02.981Z,-2.70
2023-03-06T23:43:31.636Z,-2.70
2023-03-06T23:46:00.034Z,-2.70
2023-03-06T23:48:29.931Z,-2.80
2023-03-06T23:50:58.333Z,-2.80
2023-03-06T23:53:26.490Z,-2.80
2023-03-06T23:55:54.819Z,-2.80
2023-03-06T23:58:22.838Z,-2.80
